Lonetree, Wyoming
Current Conditions -  °F | °C
As of 6:15 PM on Thursday 18 Dec 2014 (Local Time) from KFBR Reporting Station
Overcast Overcast  
Wind Chill: 22°   Ceiling: 6000
Heat Index: 29°   Visibility: 10mi
Dew Point: 26°   Wind: 7mph
Humidity: 89%   Direction: 250°WSW
Pressure: 30.14"   Gusts: NA
Location:  41.0297°N, 110.145°W
Report Text: KFBR 190115Z AUTO 25006KT 10SM SCT030 SCT035 OVC060 M02/M03 A3014 RMK AO2 T10161032
Loading
Personal Weather Stations






























Interactive Weather Map New forecast layout! Learn more

10-Day Weather Forecast

Advertisements
Track Severe Weather on mobile